Time;durP1;ratioP1;P1;durP2;ratioP2;P2;SDS_P1;SDS_P2;PMS_P1;PMS_P2;Temp;Humidity;BMP_temperature;BMP_pressure;BME280_temperature;BME280_humidity;BME280_pressure;Samples;Min_cycle;Max_cycle;Signal;HPM_P1;HPM_P2
2023/10/05 00:04:39;;;;;;;11.27;2.80;;;15.10;99.90;;;;;;5051685;28;20497;-69
2023/10/05 00:07:18;;;;;;;10.30;2.67;;;15.10;99.90;;;;;;5052255;28;20484;-69
2023/10/05 00:09:43;;;;;;;7.07;2.20;;;15.10;99.90;;;;;;5051546;28;20059;-69
2023/10/05 00:12:18;;;;;;;13.45;3.03;;;15.20;99.90;;;;;;5052224;28;20045;-69
2023/10/05 00:14:48;;;;;;;9.63;2.40;;;15.20;99.90;;;;;;5051574;28;20031;-70
2023/10/05 00:17:14;;;;;;;9.27;2.70;;;15.20;99.90;;;;;;5052393;28;20055;-69
2023/10/05 00:19:40;;;;;;;8.13;2.35;;;15.20;99.90;;;;;;5051311;28;20087;-70
2023/10/05 00:22:06;;;;;;;9.32;2.35;;;15.20;99.90;;;;;;5052082;28;20032;-70
2023/10/05 00:24:39;;;;;;;7.93;2.20;;;15.20;99.90;;;;;;5051292;28;20021;-70
2023/10/05 00:27:12;;;;;;;6.72;2.47;;;15.30;99.90;;;;;;5050697;28;20017;-70
2023/10/05 00:29:43;;;;;;;6.13;2.20;;;15.30;99.90;;;;;;5051088;28;20025;-70
2023/10/05 00:32:14;;;;;;;;;;;15.20;99.90;;;;;;5052256;28;20071;-70
2023/10/05 00:34:41;;;;;;;9.13;2.60;;;15.30;99.90;;;;;;5051167;28;20367;-69
2023/10/05 00:37:07;;;;;;;9.23;2.38;;;15.20;99.90;;;;;;5051741;28;20025;-70
2023/10/05 00:39:33;;;;;;;6.43;2.10;;;15.20;99.90;;;;;;5051107;28;20067;-69
2023/10/05 00:44:32;;;;;;;14.73;2.85;;;15.20;99.90;;;;;;5051432;28;20086;-70
2023/10/05 00:47:03;;;;;;;10.68;2.60;;;15.20;99.90;;;;;;5051919;28;20021;-70
2023/10/05 00:49:41;;;;;;;9.50;2.70;;;15.20;99.90;;;;;;5050872;28;20048;-70
2023/10/05 00:52:17;;;;;;;7.20;2.42;;;15.20;99.90;;;;;;5051704;28;20028;-69
2023/10/05 00:54:48;;;;;;;11.57;3.15;;;15.20;99.90;;;;;;5049722;28;20021;-69
2023/10/05 00:57:15;;;;;;;7.82;2.30;;;15.20;99.90;;;;;;5054059;28;20028;-69
2023/10/05 00:59:47;;;;;;;7.72;2.40;;;15.20;99.90;;;;;;5055154;28;20029;-69
2023/10/05 01:02:21;;;;;;;12.73;2.75;;;15.20;99.90;;;;;;5055733;28;20029;-70
2023/10/05 01:04:56;;;;;;;12.18;2.92;;;15.20;99.90;;;;;;5053785;28;20021;-69
2023/10/05 01:14:51;;;;;;;10.15;2.47;;;15.20;99.90;;;;;;5055125;28;20118;-70
2023/10/05 01:17:27;;;;;;;9.43;2.45;;;15.20;99.90;;;;;;5055523;28;20071;-70
2023/10/05 01:19:58;;;;;;;9.23;2.17;;;15.20;99.90;;;;;;5053318;28;20167;-70
2023/10/05 01:22:32;;;;;;;12.50;3.40;;;15.20;99.90;;;;;;5055460;28;20154;-69
2023/10/05 01:24:59;;;;;;;12.55;2.78;;;15.20;99.90;;;;;;5054854;28;20087;-69
2023/10/05 01:27:32;;;;;;;7.75;2.47;;;15.20;99.90;;;;;;5053978;28;20056;-69
2023/10/05 01:29:57;;;;;;;9.65;2.90;;;15.20;99.90;;;;;;5053283;28;20430;-70
2023/10/05 01:32:24;;;;;;;9.80;2.47;;;15.20;99.90;;;;;;5053639;28;20029;-70
2023/10/05 01:34:50;;;;;;;10.65;2.67;;;15.20;99.90;;;;;;5054366;28;20025;-69
2023/10/05 01:37:22;;;;;;;7.22;2.53;;;15.10;99.90;;;;;;5055000;28;20071;-70
2023/10/05 01:39:48;;;;;;;9.07;2.85;;;15.10;99.90;;;;;;5054237;28;20501;-70
2023/10/05 01:42:14;;;;;;;10.38;2.78;;;15.10;99.90;;;;;;5055040;28;20017;-70
2023/10/05 01:44:46;;;;;;;10.45;2.60;;;15.10;99.90;;;;;;5054197;28;20025;-69
2023/10/05 01:47:15;;;;;;;8.35;2.63;;;15.10;99.90;;;;;;5055152;28;20094;-70
2023/10/05 01:49:41;;;;;;;8.77;2.92;;;15.00;99.90;;;;;;5053470;28;20056;-69
2023/10/05 01:52:08;;;;;;;5.35;2.05;;;15.00;99.90;;;;;;5053504;28;20475;-69
2023/10/05 01:54:34;;;;;;;5.63;2.42;;;14.90;99.90;;;;;;5053096;28;20112;-69
2023/10/05 01:57:09;;;;;;;12.52;3.25;;;14.90;99.90;;;;;;5053276;28;20029;-69
2023/10/05 01:59:35;;;;;;;10.23;2.80;;;14.80;99.90;;;;;;5053362;28;20479;-69
2023/10/05 02:02:01;;;;;;;8.80;2.78;;;14.80;99.90;;;;;;5051910;28;20024;-69
2023/10/05 02:04:29;;;;;;;11.55;2.65;;;14.80;99.90;;;;;;5053089;28;20207;-69
2023/10/05 02:06:55;;;;;;;7.35;2.35;;;14.70;99.90;;;;;;5051394;28;20400;-70
2023/10/05 02:09:21;;;;;;;13.10;2.83;;;14.70;99.90;;;;;;5052840;28;20078;-69
2023/10/05 02:11:47;;;;;;;12.50;3.05;;;14.70;99.90;;;;;;5053105;28;20025;-70
2023/10/05 02:14:16;;;;;;;8.15;2.53;;;14.70;99.90;;;;;;5052988;28;20102;-69
2023/10/05 02:16:42;;;;;;;8.38;2.67;;;14.70;99.90;;;;;;5052905;28;20024;-70
2023/10/05 02:19:08;;;;;;;8.02;3.10;;;14.70;99.90;;;;;;5053027;28;20025;-70
2023/10/05 02:21:37;;;;;;;10.45;2.65;;;14.70;99.90;;;;;;5052490;28;20159;-69
2023/10/05 02:24:15;;;;;;;6.80;2.28;;;14.70;99.90;;;;;;5053146;28;20022;-69
2023/10/05 02:26:55;;;;;;;6.25;2.38;;;14.70;99.90;;;;;;5053191;28;20029;-70
2023/10/05 02:29:23;;;;;;;15.15;3.15;;;14.70;99.90;;;;;;5052875;28;20136;-70
2023/10/05 02:34:41;;;;;;;9.10;2.78;;;14.60;99.90;;;;;;5052590;28;20064;-70
2023/10/05 02:37:10;;;;;;;11.48;3.33;;;14.60;99.90;;;;;;5052616;28;20098;-69
2023/10/05 02:39:37;;;;;;;10.88;2.90;;;14.60;99.90;;;;;;5052283;28;20032;-70
2023/10/05 02:42:06;;;;;;;10.82;2.50;;;14.60;99.90;;;;;;5052688;28;20017;-70
2023/10/05 02:44:35;;;;;;;10.13;2.88;;;14.60;99.90;;;;;;5052310;28;20021;-69
2023/10/05 02:47:10;;;;;;;14.07;3.03;;;14.60;99.90;;;;;;5052512;28;20546;-70
2023/10/05 02:49:44;;;;;;;10.57;3.00;;;14.60;99.90;;;;;;5007493;28;1287808;-69
2023/10/05 02:52:14;;;;;;;8.07;2.40;;;14.60;99.90;;;;;;5053680;28;20699;-69
2023/10/05 02:54:40;;;;;;;8.65;2.67;;;14.60;99.90;;;;;;5051911;28;20029;-70
2023/10/05 02:57:10;;;;;;;11.13;3.00;;;14.50;99.90;;;;;;5053253;28;20100;-69
2023/10/05 02:59:36;;;;;;;9.05;2.92;;;14.50;99.90;;;;;;5053078;28;20372;-69
2023/10/05 03:02:24;;;;;;;13.57;3.63;;;14.60;99.90;;;;;;5053302;28;20020;-70
2023/10/05 03:04:54;;;;;;;7.97;3.08;;;14.60;99.90;;;;;;5052773;28;20110;-69
2023/10/05 03:07:24;;;;;;;12.18;3.92;;;14.60;99.90;;;;;;5053488;28;20017;-69
2023/10/05 03:09:52;;;;;;;7.97;2.80;;;14.60;99.90;;;;;;5052956;28;20052;-69
2023/10/05 03:12:20;;;;;;;9.13;2.60;;;14.60;99.90;;;;;;5051853;28;20025;-70
2023/10/05 03:14:47;;;;;;;11.07;3.42;;;14.50;99.90;;;;;;5052965;28;20021;-69
2023/10/05 03:17:18;;;;;;;9.00;3.20;;;14.50;99.90;;;;;;5053026;28;20421;-70
2023/10/05 03:19:44;;;;;;;8.32;2.75;;;14.50;99.90;;;;;;5052157;28;20048;-70
2023/10/05 03:22:12;;;;;;;12.05;3.58;;;14.40;99.90;;;;;;5052979;28;20560;-69
2023/10/05 03:24:38;;;;;;;11.73;4.07;;;14.40;99.90;;;;;;5052717;28;20102;-69
2023/10/05 03:27:05;;;;;;;15.90;3.90;;;14.40;99.90;;;;;;5051609;28;20501;-69
2023/10/05 03:29:35;;;;;;;9.25;3.08;;;14.30;99.90;;;;;;5052996;28;20052;-70
2023/10/05 03:32:13;;;;;;;12.38;3.10;;;14.40;99.90;;;;;;5052860;28;20075;-70
2023/10/05 03:34:42;;;;;;;12.63;3.80;;;14.40;99.90;;;;;;5052485;28;20032;-70
2023/10/05 03:37:13;;;;;;;4.80;2.25;;;14.30;99.90;;;;;;5052456;28;20514;-70
2023/10/05 03:42:25;;;;;;;8.50;3.20;;;14.20;99.90;;;;;;5052877;28;20039;-70
2023/10/05 03:45:00;;;;;;;14.52;3.50;;;14.30;99.90;;;;;;5050845;28;20021;-70
2023/10/05 03:47:26;;;;;;;9.40;2.78;;;14.30;99.90;;;;;;5052578;28;20490;-70
2023/10/05 03:49:54;;;;;;;7.82;3.22;;;14.30;99.90;;;;;;5051897;28;20418;-70
2023/10/05 03:52:21;;;;;;;12.07;3.95;;;14.30;99.90;;;;;;5052300;28;20502;-69
2023/10/05 03:54:46;;;;;;;15.48;4.18;;;14.30;99.90;;;;;;5052245;28;20096;-70
2023/10/05 03:57:12;;;;;;;11.68;3.70;;;14.30;99.90;;;;;;5051132;28;20503;-70
2023/10/05 03:59:39;;;;;;;8.68;3.13;;;14.40;99.90;;;;;;5050736;28;20029;-69
2023/10/05 04:02:06;;;;;;;9.48;3.55;;;14.40;99.90;;;;;;5052155;28;20088;-70
2023/10/05 04:04:34;;;;;;;11.38;3.70;;;14.40;99.90;;;;;;5052169;28;20025;-70
2023/10/05 04:07:01;;;;;;;8.27;2.60;;;14.40;99.90;;;;;;5051802;28;20028;-69
2023/10/05 04:09:29;;;;;;;9.45;3.30;;;14.40;99.90;;;;;;5052185;28;20028;-69
2023/10/05 04:11:56;;;;;;;9.68;3.70;;;14.40;99.90;;;;;;5051675;28;20024;-69
2023/10/05 04:14:22;;;;;;;10.75;3.42;;;14.40;99.90;;;;;;5052227;28;20025;-70
2023/10/05 04:16:49;;;;;;;11.65;3.65;;;14.40;99.90;;;;;;5051301;28;20024;-70
2023/10/05 04:19:17;;;;;;;12.63;3.38;;;14.40;99.90;;;;;;5052086;28;20078;-69
2023/10/05 04:21:44;;;;;;;11.65;4.13;;;14.30;99.90;;;;;;5051353;28;20013;-70
2023/10/05 04:24:14;;;;;;;17.58;4.40;;;14.40;99.90;;;;;;5052356;28;20040;-70
2023/10/05 04:26:44;;;;;;;11.18;3.35;;;14.30;99.90;;;;;;5051414;28;20021;-70
2023/10/05 04:29:11;;;;;;;10.45;4.28;;;14.30;99.90;;;;;;5052089;28;20028;-70
2023/10/05 04:31:37;;;;;;;9.95;3.58;;;14.30;99.90;;;;;;5051331;28;20024;-70
2023/10/05 04:34:22;;;;;;;9.38;3.30;;;14.30;99.90;;;;;;5051915;28;20090;-70
2023/10/05 04:36:48;;;;;;;14.20;3.88;;;14.30;99.90;;;;;;5049993;28;20056;-70
2023/10/05 04:39:26;;;;;;;9.02;3.60;;;14.20;99.90;;;;;;5051997;28;20029;-70
2023/10/05 04:41:53;;;;;;;11.85;4.05;;;14.20;99.90;;;;;;5051108;28;20113;-70
2023/10/05 04:44:20;;;;;;;11.23;3.85;;;14.20;99.90;;;;;;5051896;28;20033;-70
2023/10/05 04:46:49;;;;;;;12.85;3.70;;;14.20;99.90;;;;;;5049857;28;20163;-69
2023/10/05 04:49:16;;;;;;;12.18;3.35;;;14.20;99.90;;;;;;5051690;28;20090;-70
2023/10/05 04:51:43;;;;;;;13.13;3.85;;;14.20;99.90;;;;;;5049899;28;20537;-69
2023/10/05 04:54:10;;;;;;;8.95;3.55;;;14.20;99.90;;;;;;5051819;28;20025;-70
2023/10/05 04:56:43;;;;;;;13.38;4.45;;;14.20;99.90;;;;;;5049854;28;20032;-69
2023/10/05 05:01:56;;;;;;;11.90;3.90;;;14.20;99.90;;;;;;5051257;28;20032;-70
2023/10/05 05:04:52;;;;;;;12.20;4.28;;;14.20;99.90;;;;;;5051713;28;20028;-70
2023/10/05 05:07:24;;;;;;;12.20;4.13;;;14.20;99.90;;;;;;5051215;28;20017;-70
2023/10/05 05:09:52;;;;;;;8.07;3.85;;;14.20;99.90;;;;;;5049961;28;20021;-70
2023/10/05 05:12:20;;;;;;;9.00;3.83;;;14.10;99.90;;;;;;5051287;28;20024;-70
2023/10/05 05:14:49;;;;;;;9.50;3.35;;;14.10;99.90;;;;;;5051334;28;20029;-70
2023/10/05 05:17:22;;;;;;;11.35;4.07;;;14.10;99.90;;;;;;5049781;28;20078;-70
2023/10/05 05:19:48;;;;;;;16.25;4.07;;;14.10;99.90;;;;;;5049954;28;20021;-70
2023/10/05 05:22:14;;;;;;;11.50;3.65;;;14.10;99.90;;;;;;5050949;28;20018;-70
2023/10/05 05:24:44;;;;;;;19.50;4.53;;;14.10;99.90;;;;;;5051693;28;20070;-70
2023/10/05 05:29:45;;;;;;;9.23;4.07;;;14.10;99.90;;;;;;5051561;28;20044;-70
2023/10/05 05:32:11;;;;;;;11.73;3.70;;;14.00;99.90;;;;;;5050566;28;20087;-70
2023/10/05 05:34:41;;;;;;;13.30;4.00;;;14.00;99.90;;;;;;5049958;28;20025;-70
2023/10/05 05:37:08;;;;;;;13.13;4.60;;;14.00;99.90;;;;;;5050572;28;20021;-70
2023/10/05 05:39:43;;;;;;;7.13;3.17;;;14.00;99.90;;;;;;5051268;28;20036;-70
2023/10/05 05:42:15;;;;;;;9.70;3.70;;;14.00;99.90;;;;;;5051287;28;20096;-70
2023/10/05 05:44:43;;;;;;;8.88;3.58;;;14.00;99.90;;;;;;5054953;28;20471;-70
2023/10/05 05:47:10;;;;;;;12.25;3.92;;;14.00;99.90;;;;;;5054011;28;20029;-70
2023/10/05 05:49:39;;;;;;;11.05;4.78;;;14.00;99.90;;;;;;5054683;28;20049;-70
2023/10/05 05:52:12;;;;;;;8.27;3.50;;;14.00;99.90;;;;;;5054263;28;20025;-70
2023/10/05 05:54:38;;;;;;;13.52;3.97;;;14.00;99.90;;;;;;5054754;28;20025;-70
2023/10/05 05:57:07;;;;;;;11.35;4.35;;;14.00;99.90;;;;;;5053984;28;20087;-70
2023/10/05 05:59:38;;;;;;;10.07;3.67;;;14.10;99.90;;;;;;5054551;28;20028;-70
2023/10/05 06:02:07;;;;;;;13.50;4.03;;;14.10;99.90;;;;;;5054215;28;20456;-70
2023/10/05 06:04:33;;;;;;;12.05;3.58;;;14.10;99.90;;;;;;5053256;28;20479;-70
2023/10/05 06:07:11;;;;;;;10.85;4.05;;;14.10;99.90;;;;;;5053919;28;20021;-70
2023/10/05 06:09:39;;;;;;;15.45;4.53;;;14.10;99.90;;;;;;5054581;28;20025;-70
2023/10/05 06:12:05;;;;;;;8.15;3.58;;;14.10;99.90;;;;;;5053732;28;20506;-70
2023/10/05 06:14:34;;;;;;;12.13;4.05;;;14.10;99.90;;;;;;5054308;28;20064;-70
2023/10/05 06:17:01;;;;;;;12.50;3.70;;;14.10;99.90;;;;;;5052324;28;20116;-70
2023/10/05 06:19:27;;;;;;;12.80;4.05;;;14.10;99.90;;;;;;5054314;28;20025;-70
2023/10/05 06:21:53;;;;;;;11.80;3.85;;;14.10;99.90;;;;;;5052292;28;20009;-70
2023/10/05 06:24:18;;;;;;;10.98;3.90;;;14.20;99.90;;;;;;5054296;28;20028;-70
2023/10/05 06:26:45;;;;;;;15.15;4.13;;;14.10;99.90;;;;;;5053597;28;20136;-70
2023/10/05 06:29:13;;;;;;;10.98;4.30;;;14.10;99.90;;;;;;5054207;28;20033;-70
2023/10/05 06:31:40;;;;;;;9.15;3.00;;;14.10;99.90;;;;;;5053584;28;20161;-70
2023/10/05 06:34:10;;;;;;;10.63;3.80;;;14.20;99.90;;;;;;5054168;28;20017;-70
2023/10/05 06:36:39;;;;;;;11.93;3.60;;;14.20;99.90;;;;;;5053432;28;20021;-70
2023/10/05 06:39:14;;;;;;;10.65;3.78;;;14.20;99.90;;;;;;5053750;28;20544;-70
2023/10/05 06:41:40;;;;;;;8.85;4.15;;;14.10;99.90;;;;;;5053196;28;20383;-70
2023/10/05 06:44:07;;;;;;;11.30;4.13;;;14.10;99.90;;;;;;5053996;28;20013;-70
2023/10/05 06:46:34;;;;;;;8.95;3.97;;;14.20;99.90;;;;;;5051882;28;20025;-70
2023/10/05 06:49:01;;;;;;;14.00;4.03;;;14.10;99.90;;;;;;5053426;28;20407;-70
2023/10/05 06:51:27;;;;;;;13.90;4.78;;;14.10;99.90;;;;;;5053153;28;20044;-70
2023/10/05 06:53:59;;;;;;;9.88;3.95;;;14.20;99.90;;;;;;5052508;28;20034;-70
2023/10/05 06:56:29;;;;;;;12.57;3.75;;;14.20;99.90;;;;;;5052914;28;20088;-70
2023/10/05 06:58:54;;;;;;;13.82;4.35;;;14.20;99.90;;;;;;5053711;28;20087;-70
2023/10/05 07:01:20;;;;;;;8.88;3.85;;;14.20;99.90;;;;;;5053013;28;20464;-70
2023/10/05 07:03:52;;;;;;;11.63;4.35;;;14.20;99.90;;;;;;5052247;28;20395;-70
2023/10/05 07:06:29;;;;;;;7.95;4.32;;;14.20;99.90;;;;;;5052791;28;20114;-69
2023/10/05 07:08:55;;;;;;;11.05;3.90;;;14.20;99.90;;;;;;5053342;28;20048;-70
2023/10/05 07:11:21;;;;;;;10.20;4.22;;;14.20;99.90;;;;;;5052546;28;20059;-70
2023/10/05 07:13:47;;;;;;;8.75;3.08;;;14.20;99.90;;;;;;5053286;28;20025;-71
2023/10/05 07:16:14;;;;;;;12.20;4.38;;;14.20;99.90;;;;;;5051484;28;20119;-70
2023/10/05 07:18:44;;;;;;;10.85;4.15;;;14.20;99.90;;;;;;5053023;28;20032;-70
2023/10/05 07:21:10;;;;;;;7.97;3.43;;;14.20;99.90;;;;;;5052561;28;20463;-70
2023/10/05 07:23:39;;;;;;;13.00;4.05;;;14.30;99.90;;;;;;5053026;28;20032;-70
2023/10/05 07:26:09;;;;;;;11.00;4.00;;;14.30;99.90;;;;;;5052597;28;20108;-70
2023/10/05 07:28:35;;;;;;;13.63;5.07;;;14.30;99.90;;;;;;5052952;28;20033;-70
2023/10/05 07:31:03;;;;;;;9.40;4.25;;;14.30;99.90;;;;;;5052188;28;20078;-70
2023/10/05 07:33:29;;;;;;;12.52;4.57;;;14.40;99.90;;;;;;5052865;28;20033;-70
2023/10/05 07:35:55;;;;;;;13.13;4.05;;;14.40;99.90;;;;;;5052238;28;20075;-70
2023/10/05 07:38:26;;;;;;;11.55;3.08;;;14.40;99.90;;;;;;5052776;28;20189;-70
2023/10/05 07:40:53;;;;;;;9.43;4.00;;;14.50;99.90;;;;;;5052179;28;20472;-70
2023/10/05 07:43:19;;;;;;;10.35;3.80;;;14.50;99.90;;;;;;5052804;28;20025;-70
2023/10/05 07:45:45;;;;;;;11.95;3.63;;;14.60;99.90;;;;;;5052147;28;20025;-70
2023/10/05 07:48:11;;;;;;;13.63;4.13;;;14.60;99.90;;;;;;5051061;28;20032;-70
2023/10/05 07:50:37;;;;;;;8.98;3.67;;;14.70;99.90;;;;;;5050652;28;20041;-70
2023/10/05 07:53:03;;;;;;;13.90;4.03;;;14.70;99.90;;;;;;5052561;28;20053;-70
2023/10/05 07:55:29;;;;;;;13.90;4.75;;;14.70;99.90;;;;;;5052036;28;20066;-70
2023/10/05 07:57:55;;;;;;;9.85;3.70;;;14.80;99.90;;;;;;5052180;28;20025;-70
2023/10/05 08:00:21;;;;;;;9.35;3.97;;;14.80;99.90;;;;;;5052294;28;20042;-70
2023/10/05 08:02:47;;;;;;;9.35;3.58;;;14.80;99.90;;;;;;5051993;28;20380;-70
2023/10/05 08:05:13;;;;;;;12.68;4.10;;;14.90;99.90;;;;;;5051957;28;20021;-70
2023/10/05 08:07:39;;;;;;;15.77;3.80;;;15.00;99.90;;;;;;5051964;28;20487;-70
2023/10/05 08:10:06;;;;;;;11.30;3.80;;;15.00;99.90;;;;;;5052433;28;20248;-70
2023/10/05 08:12:32;;;;;;;14.40;4.32;;;15.00;99.90;;;;;;5051823;28;20033;-70
2023/10/05 08:14:58;;;;;;;10.05;4.25;;;15.00;99.90;;;;;;5052179;28;20498;-70
2023/10/05 08:17:24;;;;;;;11.20;3.67;;;15.10;99.90;;;;;;5051617;28;20041;-70
2023/10/05 08:19:49;;;;;;;10.52;3.90;;;15.10;99.90;;;;;;5052158;28;20029;-70
2023/10/05 08:22:20;;;;;;;10.80;4.10;;;15.20;99.90;;;;;;5051357;28;20104;-70
2023/10/05 08:24:46;;;;;;;10.77;3.70;;;15.20;99.90;;;;;;5052289;28;20096;-70
2023/10/05 08:27:14;;;;;;;12.50;4.10;;;15.30;99.90;;;;;;5050151;28;20462;-70
2023/10/05 08:29:42;;;;;;;9.73;3.17;;;15.30;99.90;;;;;;5050765;28;20048;-70
2023/10/05 08:32:07;;;;;;;7.93;3.22;;;15.40;99.90;;;;;;5051424;28;20473;-70
2023/10/05 08:34:33;;;;;;;10.55;3.88;;;15.40;99.90;;;;;;5050820;28;20036;-70
2023/10/05 08:37:01;;;;;;;13.35;3.88;;;15.50;99.90;;;;;;5051265;28;20029;-70
2023/10/05 08:39:30;;;;;;;11.77;3.85;;;15.50;99.90;;;;;;5051834;28;20480;-70
2023/10/05 08:41:57;;;;;;;12.25;3.85;;;15.60;99.90;;;;;;5051117;28;20104;-70
2023/10/05 08:44:26;;;;;;;11.65;3.92;;;15.60;99.90;;;;;;5051810;28;20025;-70
2023/10/05 08:46:53;;;;;;;10.23;3.50;;;15.70;99.90;;;;;;5051052;28;20025;-70
2023/10/05 08:49:19;;;;;;;10.30;3.50;;;15.70;99.90;;;;;;5050170;28;20045;-70
2023/10/05 08:51:45;;;;;;;9.25;3.65;;;15.80;99.90;;;;;;5051371;28;20101;-70
2023/10/05 08:54:13;;;;;;;11.23;3.67;;;15.80;99.90;;;;;;5050492;28;20475;-70
2023/10/05 08:56:40;;;;;;;9.52;3.60;;;15.80;99.90;;;;;;5051088;28;20053;-70
2023/10/05 08:59:07;;;;;;;12.10;3.97;;;15.90;99.90;;;;;;5051656;28;20021;-70
2023/10/05 09:01:34;;;;;;;10.82;3.75;;;16.00;99.90;;;;;;5050970;28;20032;-70
2023/10/05 09:04:11;;;;;;;12.90;3.97;;;16.00;99.90;;;;;;5051531;28;20609;-70
2023/10/05 09:06:52;;;;;;;10.23;3.88;;;16.10;99.90;;;;;;5051176;28;20013;-70
2023/10/05 09:09:37;;;;;;;;;;;16.10;99.90;;;;;;5051936;28;20036;-70
2023/10/05 09:12:38;;;;;;;8.75;3.22;;;16.20;99.90;;;;;;5050899;28;19908;-70
2023/10/05 09:15:37;;;;;;;10.40;3.83;;;16.30;99.90;;;;;;5051871;28;20060;-70
2023/10/05 09:20:33;;;;;;;10.93;4.10;;;16.30;99.90;;;;;;5055411;28;20029;-70
2023/10/05 09:23:00;;;;;;;12.13;3.60;;;16.40;99.90;;;;;;5054828;28;20032;-70
2023/10/05 09:25:34;;;;;;;11.98;3.83;;;16.40;99.90;;;;;;5055713;28;20082;-70
2023/10/05 09:28:13;;;;;;;10.57;3.78;;;16.40;99.90;;;;;;5054687;28;20507;-70
2023/10/05 09:30:57;;;;;;;8.68;3.15;;;16.50;99.90;;;;;;5055215;28;20087;-70
2023/10/05 09:33:34;;;;;;;8.80;3.00;;;16.60;99.90;;;;;;5055319;28;20044;-70
2023/10/05 09:36:16;;;;;;;8.13;3.10;;;16.60;99.90;;;;;;5053602;28;20020;-70
2023/10/05 09:38:46;;;;;;;10.07;3.13;;;16.60;99.90;;;;;;5053793;28;20025;-70
2023/10/05 09:41:17;;;;;;;11.30;3.42;;;16.70;99.90;;;;;;5054519;28;20096;-70
2023/10/05 09:43:44;;;;;;;;;;;16.70;99.90;;;;;;5055519;28;20017;-70
2023/10/05 09:46:10;;;;;;;7.18;3.00;;;16.70;99.90;;;;;;5054417;28;19908;-70
2023/10/05 09:48:40;;;;;;;13.25;3.78;;;16.70;99.90;;;;;;5054860;28;20428;-70
2023/10/05 09:51:10;;;;;;;12.35;3.28;;;16.80;99.90;;;;;;5054411;28;20064;-70
2023/10/05 09:53:38;;;;;;;9.85;3.17;;;16.80;99.90;;;;;;5054574;28;20029;-70
2023/10/05 09:56:04;;;;;;;9.02;2.83;;;16.80;99.90;;;;;;5052891;28;20521;-70
2023/10/05 09:58:31;;;;;;;10.00;2.80;;;16.90;99.90;;;;;;5054645;28;20078;-70
2023/10/05 10:00:57;;;;;;;9.27;3.40;;;17.00;99.90;;;;;;5054052;28;20020;-70
2023/10/05 10:03:23;;;;;;;7.50;3.00;;;17.00;99.90;;;;;;5054412;28;20017;-70
2023/10/05 10:06:08;;;;;;;6.82;3.00;;;17.00;99.90;;;;;;5054373;28;20070;-70
2023/10/05 10:08:42;;;;;;;9.73;3.22;;;17.00;99.90;;;;;;5054314;28;20036;-70
2023/10/05 10:11:24;;;;;;;11.18;3.33;;;17.00;99.90;;;;;;5052770;28;20060;-70
2023/10/05 10:14:08;;;;;;;7.85;2.78;;;17.00;99.90;;;;;;5054398;28;20032;-70
2023/10/05 10:16:39;;;;;;;11.02;3.17;;;17.10;99.90;;;;;;5052404;28;20056;-70
2023/10/05 10:19:19;;;;;;;11.32;2.85;;;17.10;99.90;;;;;;5054216;28;20036;-70
2023/10/05 10:22:07;;;;;;;9.38;2.90;;;17.10;99.90;;;;;;5053816;28;20017;-70
2023/10/05 10:24:34;;;;;;;13.25;3.10;;;17.10;99.90;;;;;;5054294;28;20018;-70
2023/10/05 10:27:08;;;;;;;11.35;2.90;;;17.20;99.90;;;;;;5052220;28;20021;-70
2023/10/05 10:29:47;;;;;;;10.70;2.92;;;17.20;99.90;;;;;;5053995;28;20029;-70
2023/10/05 10:32:20;;;;;;;10.07;3.03;;;17.20;99.90;;;;;;5053373;28;20079;-70
2023/10/05 10:34:49;;;;;;;10.88;3.50;;;17.20;99.90;;;;;;5054067;28;20391;-70
2023/10/05 10:37:42;;;;;;;13.70;3.35;;;17.30;99.90;;;;;;5053307;28;20483;-70
2023/10/05 10:45:42;;;;;;;10.35;3.20;;;17.40;99.90;;;;;;5053807;28;20414;-70
2023/10/05 10:48:12;;;;;;;7.60;3.33;;;17.50;99.90;;;;;;5053021;28;20029;-71
2023/10/05 10:50:39;;;;;;;8.70;3.30;;;17.40;99.90;;;;;;5053659;28;20140;-70
2023/10/05 10:53:18;;;;;;;8.98;3.25;;;17.50;99.90;;;;;;5051625;28;20025;-70
2023/10/05 10:55:47;;;;;;;10.45;3.08;;;17.50;99.90;;;;;;5053745;28;20029;-70
2023/10/05 10:58:16;;;;;;;10.77;3.97;;;17.50;99.90;;;;;;5052956;28;20314;-70
2023/10/05 11:01:25;;;;;;;14.52;3.42;;;17.60;99.90;;;;;;5052307;28;20040;-70
2023/10/05 11:03:55;;;;;;;;;;;17.60;99.90;;;;;;5054063;28;20021;-70
2023/10/05 11:06:23;;;;;;;12.90;3.13;;;17.70;99.90;;;;;;5053185;28;19939;-70
2023/10/05 11:08:53;;;;;;;10.63;3.35;;;17.70;99.90;;;;;;5053735;28;20025;-70
2023/10/05 11:11:23;;;;;;;10.43;3.08;;;17.80;99.90;;;;;;5052881;28;20039;-70
2023/10/05 11:14:05;;;;;;;8.93;2.67;;;17.90;99.90;;;;;;5051868;28;20391;-70
2023/10/05 11:16:35;;;;;;;12.50;3.53;;;18.00;99.90;;;;;;5052745;28;20479;-70
2023/10/05 11:19:04;;;;;;;12.80;3.35;;;18.10;99.90;;;;;;5053165;28;20534;-70
2023/10/05 11:21:36;;;;;;;7.22;2.90;;;18.20;99.90;;;;;;5052593;28;20036;-70
2023/10/05 11:24:06;;;;;;;12.55;3.15;;;18.30;99.90;;;;;;5053135;28;20017;-70
2023/10/05 11:26:33;;;;;;;8.48;3.28;;;18.30;99.90;;;;;;5053030;28;20087;-70
2023/10/05 11:29:15;;;;;;;13.13;3.05;;;18.30;99.90;;;;;;5053024;28;20029;-70
2023/10/05 11:31:40;;;;;;;9.13;2.95;;;18.20;99.90;;;;;;5052279;28;20036;-70
2023/10/05 11:34:09;;;;;;;7.93;2.72;;;18.20;99.90;;;;;;5051567;28;20021;-70
2023/10/05 11:36:39;;;;;;;9.65;3.22;;;18.20;99.90;;;;;;5052180;28;20434;-70
2023/10/05 11:39:20;;;;;;;12.10;2.60;;;18.20;99.90;;;;;;5051703;28;20426;-70
2023/10/05 11:41:46;;;;;;;10.80;3.13;;;18.30;99.90;;;;;;5051759;28;20485;-70
2023/10/05 11:44:15;;;;;;;10.30;2.63;;;18.30;99.90;;;;;;5053141;28;20288;-70
2023/10/05 11:46:46;;;;;;;8.15;2.95;;;18.30;99.90;;;;;;5052010;28;20036;-70
2023/10/05 11:49:13;;;;;;;;;;;18.30;99.90;;;;;;5053139;28;20047;-70
2023/10/05 11:51:42;;;;;;;12.40;3.42;;;18.40;99.90;;;;;;5051938;28;20331;-70
2023/10/05 11:54:12;;;;;;;9.00;3.17;;;18.40;99.90;;;;;;5051172;28;20029;-70
2023/10/05 11:56:40;;;;;;;7.75;2.83;;;18.40;99.90;;;;;;5052353;28;20109;-70
2023/10/05 11:59:08;;;;;;;11.82;3.33;;;18.40;99.90;;;;;;5052293;28;20498;-70
2023/10/05 12:01:34;;;;;;;9.75;3.85;;;18.40;99.90;;;;;;5052002;28;20025;-70
2023/10/05 12:04:04;;;;;;;12.23;3.60;;;18.50;99.90;;;;;;5050949;28;20449;-70
2023/10/05 12:06:30;;;;;;;7.97;2.80;;;18.60;99.90;;;;;;5052042;28;20017;-70
2023/10/05 12:09:27;;;;;;;11.13;3.53;;;18.60;99.90;;;;;;5051991;28;20475;-70
2023/10/05 12:11:54;;;;;;;10.52;3.05;;;18.70;99.90;;;;;;5051662;28;20033;-70
2023/10/05 12:14:20;;;;;;;10.88;3.15;;;18.70;99.90;;;;;;5051068;28;20039;-70
2023/10/05 12:16:46;;;;;;;8.02;2.72;;;18.80;99.90;;;;;;5051442;28;20490;-70
2023/10/05 12:19:16;;;;;;;8.63;3.10;;;18.80;99.90;;;;;;5052256;28;20083;-70
2023/10/05 12:21:43;;;;;;;8.55;3.13;;;18.80;99.90;;;;;;5051639;28;20067;-70
2023/10/05 12:24:11;;;;;;;9.75;2.67;;;18.80;99.90;;;;;;5050944;28;20020;-70
2023/10/05 12:26:42;;;;;;;9.43;3.00;;;18.80;99.90;;;;;;5051615;28;20383;-70
2023/10/05 12:29:14;;;;;;;10.90;2.90;;;18.80;99.90;;;;;;5052140;28;20029;-70
2023/10/05 12:31:41;;;;;;;6.20;2.75;;;18.90;99.90;;;;;;5051638;28;20548;-70
2023/10/05 12:34:14;;;;;;;14.40;2.97;;;18.80;99.90;;;;;;5051802;28;20036;-70
2023/10/05 12:36:41;;;;;;;12.52;3.42;;;18.80;99.90;;;;;;5050255;28;20162;-70
2023/10/05 12:39:11;;;;;;;9.48;2.72;;;18.80;99.90;;;;;;5051862;28;20024;-70
2023/10/05 12:41:40;;;;;;;8.63;2.70;;;18.80;99.90;;;;;;5051744;28;20024;-70
2023/10/05 12:44:09;;;;;;;8.75;2.58;;;18.70;99.90;;;;;;5051829;28;20017;-70
2023/10/05 12:46:39;;;;;;;10.50;3.03;;;18.70;99.90;;;;;;5051304;28;20032;-71
2023/10/05 12:49:09;;;;;;;6.53;2.55;;;18.70;99.90;;;;;;5050049;28;20045;-70
2023/10/05 12:51:38;;;;;;;5.50;2.03;;;18.70;99.90;;;;;;5052899;28;20021;-70
2023/10/05 12:54:09;;;;;;;10.05;2.70;;;18.70;99.90;;;;;;5055915;28;20032;-70
2023/10/05 12:56:41;;;;;;;10.40;2.80;;;18.70;99.90;;;;;;5054189;28;20482;-71
2023/10/05 12:59:07;;;;;;;8.45;2.92;;;18.70;99.90;;;;;;5055544;28;20032;-70
2023/10/05 13:01:43;;;;;;;10.18;2.85;;;18.70;99.90;;;;;;5055354;28;20021;-71
2023/10/05 13:04:12;;;;;;;10.18;2.42;;;18.70;99.90;;;;;;5055583;28;20032;-71
2023/10/05 13:06:38;;;;;;;9.20;2.47;;;18.80;99.90;;;;;;5055175;28;20024;-71
2023/10/05 13:09:11;;;;;;;10.23;2.78;;;18.80;99.90;;;;;;5055563;28;20083;-71
2023/10/05 13:11:39;;;;;;;9.23;2.78;;;18.80;99.90;;;;;;5055150;28;20025;-71
2023/10/05 13:14:08;;;;;;;9.07;3.00;;;18.80;99.90;;;;;;5054066;28;20033;-71
2023/10/05 13:16:41;;;;;;;7.63;2.47;;;18.80;99.90;;;;;;5055050;28;20104;-70
2023/10/05 13:19:10;;;;;;;10.00;2.88;;;18.80;99.90;;;;;;5055032;28;20067;-71
2023/10/05 13:21:36;;;;;;;9.98;2.88;;;18.80;99.90;;;;;;5054894;28;20514;-70
2023/10/05 13:24:06;;;;;;;10.20;2.95;;;18.80;99.90;;;;;;5055010;28;20021;-70
2023/10/05 13:26:32;;;;;;;8.93;2.33;;;18.80;99.90;;;;;;5055235;28;20021;-71
2023/10/05 13:28:59;;;;;;;8.23;2.45;;;18.80;99.90;;;;;;5054939;28;20487;-71